Time;durP1;ratioP1;P1;durP2;ratioP2;P2;SDS_P1;SDS_P2;PMS_P1;PMS_P2;Temp;Humidity;BMP_temperature;BMP_pressure;BME280_temperature;BME280_humidity;BME280_pressure;Samples;Min_cycle;Max_cycle;Signal;HPM_P1;HPM_P2
2021/01/12 00:01:47;;;;;;;1999.90;999.90;;;;;;;-1.05;89.10;101564.88;1845222;77;20973;-70
2021/01/12 00:04:15;;;;;;;1999.90;999.90;;;;;;;-1.02;89.20;101572.61;1848567;76;21373;-70
2021/01/12 00:06:43;;;;;;;1999.90;999.90;;;;;;;-1.00;89.30;101571.88;1839530;76;21154;-65
2021/01/12 00:09:11;;;;;;;1999.90;999.90;;;;;;;-0.98;89.35;101565.72;1818099;77;21532;-69
2021/01/12 00:11:39;;;;;;;1999.90;999.90;;;;;;;-1.00;89.32;101572.72;1844846;77;21080;-66
2021/01/12 00:14:30;;;;;;;1999.90;999.90;;;;;;;-0.99;89.37;101567.60;1848102;76;21055;-65
2021/01/12 00:16:39;;;;;;;1999.90;999.90;;;;;;;-0.97;89.48;101567.39;1847645;77;21140;-69
2021/01/12 00:19:07;;;;;;;1999.90;999.90;;;;;;;-0.97;89.53;101560.60;1843709;77;20964;-66
2021/01/12 00:21:35;;;;;;;1999.90;999.90;;;;;;;-0.98;89.51;101561.12;1837950;77;21561;-65
2021/01/12 00:24:04;;;;;;;1999.90;999.90;;;;;;;-1.00;89.53;101567.81;1841188;77;20995;-65
2021/01/12 00:26:31;;;;;;;1999.90;999.90;;;;;;;-1.04;89.60;101566.03;1841853;77;21095;-65
2021/01/12 00:28:59;;;;;;;1999.90;999.90;;;;;;;-1.07;89.61;101564.25;1853845;77;21378;-69
2021/01/12 00:31:28;;;;;;;1999.90;999.90;;;;;;;-1.09;89.76;101564.98;1854892;77;21111;-69
2021/01/12 00:33:56;;;;;;;1999.90;999.90;;;;;;;-1.09;89.92;101567.17;1828323;77;21095;-69
2021/01/12 00:36:24;;;;;;;1999.90;999.90;;;;;;;-1.09;90.10;101567.17;1830239;77;21110;-69
2021/01/12 00:38:51;;;;;;;1999.90;999.90;;;;;;;-1.08;90.37;101569.37;1828502;77;21043;-65
2021/01/12 00:41:21;;;;;;;1999.90;999.90;;;;;;;-1.07;90.42;101571.88;1823306;77;21511;-65
2021/01/12 00:43:48;;;;;;;1999.90;999.90;;;;;;;-1.07;90.43;101569.69;1833403;76;21696;-69
2021/01/12 00:46:16;;;;;;;1999.90;999.90;;;;;;;-1.09;90.53;101575.33;1823987;77;21519;-70
2021/01/12 00:48:44;;;;;;;1999.90;999.90;;;;;;;-1.09;90.59;101579.40;1825889;77;21007;-65
2021/01/12 00:51:12;;;;;;;1999.90;999.90;;;;;;;-1.09;90.61;101574.48;1828028;77;21551;-65
2021/01/12 00:53:40;;;;;;;1999.90;999.90;;;;;;;-1.10;90.63;101570.09;1822338;77;22345;-65
2021/01/12 00:56:15;;;;;;;1999.90;999.90;;;;;;;-1.12;90.59;101575.73;1821377;77;21890;-66
2021/01/12 00:58:43;;;;;;;1999.90;999.90;;;;;;;-1.12;90.64;101578.98;1828951;76;21083;-69
2021/01/12 01:01:11;;;;;;;1999.90;999.90;;;;;;;-1.16;90.69;101573.13;1817301;77;21550;-65
2021/01/12 01:03:39;;;;;;;1999.90;999.90;;;;;;;-1.19;90.65;101574.89;1823448;76;20941;-66
2021/01/12 01:06:07;;;;;;;1999.90;999.90;;;;;;;-1.20;90.62;101573.22;1825158;77;21526;-65
2021/01/12 01:08:36;;;;;;;1999.90;999.90;;;;;;;-1.21;90.66;101567.47;1819157;77;21139;-65
2021/01/12 01:11:04;;;;;;;1999.90;999.90;;;;;;;-1.19;90.72;101570.81;1818849;77;21105;-65
2021/01/12 01:13:32;;;;;;;1999.90;999.90;;;;;;;-1.18;90.77;101573.84;1822201;76;21542;-65
2021/01/12 01:16:01;;;;;;;1999.90;999.90;;;;;;;-1.16;90.85;101565.49;1820651;77;20957;-69
2021/01/12 01:18:29;;;;;;;1999.90;999.90;;;;;;;-1.15;90.82;101567.17;1829826;77;21340;-65
2021/01/12 01:20:57;;;;;;;1999.90;999.90;;;;;;;-1.17;90.60;101552.95;1815545;77;20969;-65
2021/01/12 01:23:25;;;;;;;1999.90;999.90;;;;;;;-1.21;90.66;101553.05;1821870;77;20955;-65
2021/01/12 01:25:52;;;;;;;1999.90;999.90;;;;;;;-1.23;90.80;101550.55;1819095;76;21559;-69
2021/01/12 01:28:21;;;;;;;1999.90;999.90;;;;;;;-1.21;90.86;101546.27;1819247;77;21012;-70
2021/01/12 01:30:49;;;;;;;1999.90;999.90;;;;;;;-1.25;90.80;101547.20;1819519;77;22244;-65
2021/01/12 01:33:17;;;;;;;1999.90;999.90;;;;;;;-1.27;90.88;101538.94;1828574;77;21491;-66
2021/01/12 01:35:46;;;;;;;1999.90;999.90;;;;;;;-1.28;90.95;101542.18;1852456;77;20982;-70
2021/01/12 01:38:14;;;;;;;1999.90;999.90;;;;;;;-1.26;91.02;101548.23;1824829;77;21090;-69
2021/01/12 01:40:42;;;;;;;1999.90;999.90;;;;;;;-1.26;91.08;101541.45;1854710;77;21010;-65
2021/01/12 01:43:22;;;;;;;1999.90;999.90;;;;;;;-1.28;90.99;101548.97;1856227;77;21538;-69
2021/01/12 01:45:52;;;;;;;1999.90;999.90;;;;;;;-1.33;90.95;101545.52;1837431;77;21566;-69
2021/01/12 01:48:21;;;;;;;1999.90;999.90;;;;;;;-1.38;91.06;101541.75;1840348;77;20917;-70
2021/01/12 01:50:49;;;;;;;1999.90;999.90;;;;;;;-1.43;91.23;101543.72;1824788;77;21582;-69
2021/01/12 01:53:17;;;;;;;1999.90;999.90;;;;;;;-1.44;91.48;101542.56;1839890;77;20929;-68
2021/01/12 01:55:45;;;;;;;1999.90;999.90;;;;;;;-1.42;91.71;101552.70;1833651;77;21363;-65
2021/01/12 01:58:13;;;;;;;1999.90;999.90;;;;;;;-1.41;91.85;101547.06;1821848;77;21542;-65
2021/01/12 02:00:41;;;;;;;1999.90;999.90;;;;;;;-1.40;91.97;101550.62;1839122;77;21753;-69
2021/01/12 02:03:39;;;;;;;1999.90;999.90;;;;;;;-1.36;92.11;101552.72;1836738;77;21201;-65
2021/01/12 02:06:19;;;;;;;1999.90;999.90;;;;;;;-1.32;92.03;101553.14;1853927;77;21047;-69
2021/01/12 02:09:01;;;;;;;1999.90;999.90;;;;;;;-1.30;92.00;101550.53;1846554;77;21623;-66
2021/01/12 02:11:31;;;;;;;1999.90;999.90;;;;;;;-1.25;91.98;101554.51;1842980;77;21086;-70
2021/01/12 02:14:01;;;;;;;1999.90;999.90;;;;;;;-1.24;91.87;101552.95;1850040;77;20976;-69
2021/01/12 02:16:29;;;;;;;1999.90;999.90;;;;;;;-1.25;91.84;101545.84;1845098;77;21083;-69
2021/01/12 02:18:58;;;;;;;1999.90;999.90;;;;;;;-1.24;91.83;101551.59;1853245;77;21010;-65
2021/01/12 02:21:28;;;;;;;1999.90;999.90;;;;;;;-1.24;91.75;101555.66;1841894;77;22206;-65
2021/01/12 02:24:04;;;;;;;1999.90;999.90;;;;;;;-1.17;91.71;101554.31;1825673;76;22672;-67
2021/01/12 02:26:32;;;;;;;1999.90;999.90;;;;;;;-1.26;91.45;101561.82;1804876;77;20949;-67
2021/01/12 02:29:00;;;;;;;1999.90;999.90;;;;;;;-1.30;91.30;101557.84;1798794;79;21476;-69
2021/01/12 02:31:30;;;;;;;1999.90;999.90;;;;;;;-1.41;91.17;101560.64;1801906;78;20976;-65
2021/01/12 02:34:00;;;;;;;1999.90;999.90;;;;;;;-1.48;91.34;101564.38;1799686;79;21014;-70
2021/01/12 02:36:29;;;;;;;1999.90;999.90;;;;;;;-1.48;91.63;101573.88;1804678;78;21660;-70
2021/01/12 02:38:58;;;;;;;1999.90;999.90;;;;;;;-1.46;91.85;101573.16;1798004;78;21048;-65
2021/01/12 02:41:29;;;;;;;1999.90;999.90;;;;;;;-1.42;91.95;101568.47;1797197;79;21360;-69
2021/01/12 02:43:57;;;;;;;1999.90;999.90;;;;;;;-1.40;91.88;101568.27;1802126;79;21020;-70
2021/01/12 02:46:25;;;;;;;1999.90;999.90;;;;;;;-1.45;91.57;101568.05;1796500;79;20965;-65
2021/01/12 02:48:53;;;;;;;1999.90;999.90;;;;;;;-1.51;91.40;101568.34;1803640;78;20977;-69
2021/01/12 02:51:21;;;;;;;1999.90;999.90;;;;;;;-1.51;91.54;101571.06;1805172;77;20929;-65
2021/01/12 02:53:49;;;;;;;1999.90;999.90;;;;;;;-1.48;91.70;101575.24;1802414;79;22117;-69
2021/01/12 02:56:25;;;;;;;1999.90;999.90;;;;;;;-1.46;91.83;101571.80;1805000;77;20969;-66
2021/01/12 02:58:53;;;;;;;1999.90;999.90;;;;;;;-1.43;91.88;101569.52;1802124;77;20956;-65
2021/01/12 03:01:21;;;;;;;1999.90;999.90;;;;;;;-1.41;91.81;101571.50;1806440;79;21086;-66
2021/01/12 03:03:49;;;;;;;1999.90;999.90;;;;;;;-1.39;91.84;101576.73;1796275;79;20980;-70
2021/01/12 03:06:17;;;;;;;1999.90;999.90;;;;;;;-1.36;91.96;101577.67;1812028;79;21431;-69
2021/01/12 03:08:45;;;;;;;1999.90;999.90;;;;;;;-1.35;91.96;101585.62;1804429;79;21130;-65
2021/01/12 03:11:12;;;;;;;1999.90;999.90;;;;;;;-1.36;91.87;101581.75;1807693;79;20945;-69
2021/01/12 03:13:40;;;;;;;1999.90;999.90;;;;;;;-1.35;91.87;101579.35;1799249;78;21093;-65
2021/01/12 03:16:09;;;;;;;1999.90;999.90;;;;;;;-1.34;91.89;101576.43;1799531;79;20937;-65
2021/01/12 03:18:37;;;;;;;1999.90;999.90;;;;;;;-1.33;91.88;101580.81;1801647;79;21570;-69
2021/01/12 03:21:05;;;;;;;1999.90;999.90;;;;;;;-1.32;91.91;101585.20;1806303;77;20989;-66
2021/01/12 03:23:33;;;;;;;1999.90;999.90;;;;;;;-1.33;91.83;101594.39;1802265;78;21111;-69
2021/01/12 03:26:02;;;;;;;1999.90;999.90;;;;;;;-1.34;91.66;101595.96;1801989;77;20949;-66
2021/01/12 03:28:30;;;;;;;1999.90;999.90;;;;;;;-1.37;91.48;101589.06;1803913;79;20941;-65
2021/01/12 03:31:00;;;;;;;1999.90;999.90;;;;;;;-1.39;91.39;101594.38;1793682;79;21013;-66
2021/01/12 03:33:30;;;;;;;1999.90;999.90;;;;;;;-1.40;91.45;101588.11;1795601;79;20996;-66
2021/01/12 03:35:58;;;;;;;1999.90;999.90;;;;;;;-1.36;91.55;101593.45;1796029;79;21111;-68
2021/01/12 03:38:26;;;;;;;1999.90;999.90;;;;;;;-1.35;91.55;101592.93;1800106;78;21512;-65
2021/01/12 03:40:54;;;;;;;1999.90;999.90;;;;;;;-1.36;91.61;101594.81;1796106;79;21072;-65
2021/01/12 03:43:22;;;;;;;1999.90;999.90;;;;;;;-1.36;91.66;101602.12;1804775;79;21394;-70
2021/01/12 03:45:51;;;;;;;1999.90;999.90;;;;;;;-1.40;91.45;101604.92;1798078;79;21111;-69
2021/01/12 03:48:20;;;;;;;1999.90;999.90;;;;;;;-1.46;91.34;101600.31;1801998;79;20961;-70
2021/01/12 03:50:49;;;;;;;1999.90;999.90;;;;;;;-1.49;91.39;101603.44;1798404;79;21507;-65
2021/01/12 03:53:17;;;;;;;1999.90;999.90;;;;;;;-1.52;91.33;101610.63;1799594;79;21504;-67
2021/01/12 03:55:45;;;;;;;1999.90;999.90;;;;;;;-1.54;91.22;101606.77;1809722;79;21375;-65
2021/01/12 03:58:13;;;;;;;1999.90;999.90;;;;;;;-1.55;91.08;101603.73;1797689;79;21562;-65
2021/01/12 04:00:40;;;;;;;1999.90;999.90;;;;;;;-1.54;91.06;101598.62;1798567;78;21515;-65
2021/01/12 04:03:08;;;;;;;1999.90;999.90;;;;;;;-1.52;91.08;101591.10;1799624;79;21402;-70
2021/01/12 04:05:38;;;;;;;1999.90;999.90;;;;;;;-1.47;91.19;101589.97;1804434;79;21083;-66
2021/01/12 04:08:09;;;;;;;1999.90;999.90;;;;;;;-1.41;91.18;101589.16;1799054;79;22262;-69
2021/01/12 04:10:37;;;;;;;1999.90;999.90;;;;;;;-1.38;91.09;101589.27;1800179;77;20993;-66
2021/01/12 04:13:05;;;;;;;1999.90;999.90;;;;;;;-1.35;91.02;101586.14;1808382;79;20953;-65
2021/01/12 04:15:33;;;;;;;1999.90;999.90;;;;;;;-1.33;90.92;101579.98;1804488;78;21068;-65
2021/01/12 04:18:01;;;;;;;1999.90;999.90;;;;;;;-1.32;90.92;101574.34;1800101;79;21056;-65
2021/01/12 04:20:29;;;;;;;1999.90;999.90;;;;;;;-1.30;90.86;101575.50;1802164;79;21428;-66
2021/01/12 04:22:57;;;;;;;1999.90;999.90;;;;;;;-1.29;90.72;101570.38;1804916;78;20973;-69
2021/01/12 04:25:25;;;;;;;1999.90;999.90;;;;;;;-1.33;90.68;101562.33;1817575;77;20980;-65
2021/01/12 04:27:53;;;;;;;1999.90;999.90;;;;;;;-1.32;90.84;101559.41;1816510;78;21593;-66
2021/01/12 04:30:21;;;;;;;1999.90;999.90;;;;;;;-1.28;90.86;101556.28;1818831;78;21079;-66
2021/01/12 04:32:49;;;;;;;1999.90;999.90;;;;;;;-1.27;90.85;101561.51;1815208;78;21345;-66
2021/01/12 04:35:17;;;;;;;1999.90;999.90;;;;;;;-1.28;90.64;101559.83;1814083;78;21131;-66
2021/01/12 04:37:45;;;;;;;1999.90;999.90;;;;;;;-1.33;90.52;101559.61;1816412;78;20960;-70
2021/01/12 04:40:13;;;;;;;1999.90;999.90;;;;;;;-1.34;90.46;101562.02;1814915;78;21075;-65
2021/01/12 04:42:42;;;;;;;1999.90;999.90;;;;;;;-1.34;90.51;101560.14;1809952;78;20940;-65
2021/01/12 04:45:11;;;;;;;1999.90;999.90;;;;;;;-1.33;90.44;101550.11;1792754;78;22131;-69
2021/01/12 04:47:38;;;;;;;1999.90;999.90;;;;;;;-1.34;90.34;101547.91;1823484;78;20996;-66
2021/01/12 04:50:07;;;;;;;1999.90;999.90;;;;;;;-1.34;90.41;101540.29;1813302;78;21665;-66
2021/01/12 04:52:49;;;;;;;1999.90;999.90;;;;;;;-1.35;90.45;101543.53;1805150;78;21098;-69
2021/01/12 04:55:17;;;;;;;1999.90;999.90;;;;;;;-1.35;90.52;101553.55;1813762;77;20953;-71
2021/01/12 04:57:45;;;;;;;1999.90;999.90;;;;;;;-1.38;90.53;101545.81;1808025;78;21548;-67
2021/01/12 05:03:06;;;;;;;1999.90;999.90;;;;;;;-1.31;90.87;101546.67;1862591;76;25265;-65
2021/01/12 05:05:39;;;;;;;1999.90;999.90;;;;;;;-1.33;90.92;101540.60;1831579;77;20945;-66
2021/01/12 05:08:09;;;;;;;1999.90;999.90;;;;;;;-1.33;90.99;101541.96;1826715;77;21336;-70
2021/01/12 05:10:40;;;;;;;1999.90;999.90;;;;;;;-1.32;91.14;101540.92;1828448;77;20949;-70
2021/01/12 05:13:12;;;;;;;1999.90;999.90;;;;;;;-1.32;91.27;101540.92;1831263;77;20958;-66
2021/01/12 05:15:40;;;;;;;1999.90;999.90;;;;;;;-1.32;91.29;101534.97;1825100;77;20913;-66
2021/01/12 05:18:10;;;;;;;1999.90;999.90;;;;;;;-1.32;91.35;101534.13;1834496;77;21527;-71
2021/01/12 05:20:43;;;;;;;1999.90;999.90;;;;;;;-1.32;91.40;101542.28;1827959;77;21365;-69
2021/01/12 05:23:13;;;;;;;1999.90;999.90;;;;;;;-1.32;91.41;101540.40;1822954;77;20960;-66
2021/01/12 05:25:41;;;;;;;1999.90;999.90;;;;;;;-1.31;91.43;101541.23;1830700;77;20976;-66
2021/01/12 05:28:11;;;;;;;1999.90;999.90;;;;;;;-1.33;91.44;101539.25;1778810;80;21588;-66
2021/01/12 05:30:39;;;;;;;1999.90;999.90;;;;;;;-1.35;91.45;101544.05;1762749;80;20989;-66
2021/01/12 05:33:07;;;;;;;1999.90;999.90;;;;;;;-1.40;91.42;101550.09;1791023;78;21199;-69
2021/01/12 05:35:37;;;;;;;1999.90;999.90;;;;;;;-1.46;91.65;101552.27;1789142;79;21531;-66
2021/01/12 05:38:06;;;;;;;1999.90;999.90;;;;;;;-1.51;92.02;101553.93;1790631;78;21567;-66
2021/01/12 05:43:16;;;;;;;1999.90;999.90;;;;;;;-1.59;92.89;101554.12;1885360;75;22545;-64
2021/01/12 05:45:44;;;;;;;1999.90;999.90;;;;;;;-1.69;93.26;101553.15;1841956;77;20961;-70
2021/01/12 05:48:12;;;;;;;1999.90;999.90;;;;;;;-1.72;93.54;101558.98;1788417;79;22258;-71
2021/01/12 05:50:40;;;;;;;1999.90;999.90;;;;;;;-1.74;93.80;101570.05;1773230;80;20969;-67
2021/01/12 05:53:15;;;;;;;1999.90;999.90;;;;;;;-1.73;94.03;101573.59;1768622;80;21297;-70
2021/01/12 05:55:44;;;;;;;1999.90;999.90;;;;;;;-1.70;94.25;101568.59;1774722;80;21063;-70
2021/01/12 05:58:19;;;;;;;1999.90;999.90;;;;;;;-1.63;94.39;101572.69;1776050;80;21036;-67
2021/01/12 06:00:48;;;;;;;1999.90;999.90;;;;;;;-1.57;94.47;101577.30;1773446;80;21440;-67
2021/01/12 06:03:16;;;;;;;1999.90;999.90;;;;;;;-1.51;94.46;101577.01;1776936;80;20997;-67
2021/01/12 06:05:46;;;;;;;1999.90;999.90;;;;;;;-1.48;94.38;101588.81;1774484;80;21583;-72
2021/01/12 06:08:14;;;;;;;1999.90;999.90;;;;;;;-1.48;94.24;101579.31;1777601;80;20927;-67
2021/01/12 06:10:44;;;;;;;1999.90;999.90;;;;;;;-1.47;94.23;101581.83;1773042;80;21092;-68
2021/01/12 06:13:18;;;;;;;1999.90;999.90;;;;;;;-1.43;94.24;101573.59;1774141;80;21419;-67
2021/01/12 06:15:48;;;;;;;1999.90;999.90;;;;;;;-1.39;94.22;101587.59;1775653;80;21001;-71
2021/01/12 06:18:17;;;;;;;1999.90;999.90;;;;;;;-1.36;94.14;101585.83;1768702;80;20969;-71
2021/01/12 06:21:11;;;;;;;1999.90;999.90;;;;;;;-1.33;94.11;101592.20;1771228;80;21006;-67
2021/01/12 06:23:49;;;;;;;1999.90;999.90;;;;;;;-1.32;93.99;101592.00;1773660;80;20974;-67
2021/01/12 06:26:17;;;;;;;1999.90;999.90;;;;;;;-1.34;93.78;101598.67;1766946;79;22281;-71
2021/01/12 06:28:45;;;;;;;1999.90;999.90;;;;;;;-1.40;93.61;101597.62;1749585;80;20953;-67
2021/01/12 06:31:13;;;;;;;1999.90;999.90;;;;;;;-1.43;93.43;101599.38;1774538;80;21079;-71
2021/01/12 06:33:41;;;;;;;1999.90;999.90;;;;;;;-1.46;93.39;101590.81;1777157;80;21158;-67
2021/01/12 06:36:10;;;;;;;1999.90;999.90;;;;;;;-1.44;93.65;101597.71;1774156;80;21129;-71
2021/01/12 06:38:38;;;;;;;1999.90;999.90;;;;;;;-1.40;93.71;101604.41;1772141;80;21336;-71
2021/01/12 06:41:08;;;;;;;1999.90;999.90;;;;;;;-1.35;93.44;101623.64;1772641;80;21016;-67
2021/01/12 06:43:35;;;;;;;1999.90;999.90;;;;;;;-1.33;92.99;101635.66;1758360;80;21542;-67
2021/01/12 06:46:04;;;;;;;1999.90;999.90;;;;;;;-1.36;92.18;101631.98;1748587;80;21031;-71
2021/01/12 06:48:32;;;;;;;1999.90;999.90;;;;;;;-1.42;91.74;101633.64;1728197;81;20969;-67
2021/01/12 06:51:00;;;;;;;1999.90;999.90;;;;;;;-1.46;91.49;101630.18;1705992;81;21566;-71
2021/01/12 06:53:29;;;;;;;1999.90;999.90;;;;;;;-1.48;91.37;101619.52;1728295;81;21142;-71
2021/01/12 06:56:06;;;;;;;1999.90;999.90;;;;;;;-1.46;91.32;101605.74;1743125;80;21114;-67
2021/01/12 06:58:34;;;;;;;1999.90;999.90;;;;;;;-1.43;91.18;101606.17;1752309;81;20988;-67
2021/01/12 07:01:02;;;;;;;1999.90;999.90;;;;;;;-1.40;91.07;101609.84;1748481;81;21099;-71
2021/01/12 07:03:33;;;;;;;1999.90;999.90;;;;;;;-1.40;90.83;101605.77;1754216;81;22240;-68
2021/01/12 07:06:02;;;;;;;1999.90;999.90;;;;;;;-1.37;90.78;101611.30;1753683;80;20996;-68
2021/01/12 07:08:30;;;;;;;1999.90;999.90;;;;;;;-1.34;90.73;101617.69;1755031;81;21125;-67
2021/01/12 07:11:04;;;;;;;1999.90;999.90;;;;;;;-1.32;90.57;101621.03;1749307;81;21547;-69
2021/01/12 07:13:41;;;;;;;1999.90;999.90;;;;;;;-1.28;90.30;101626.37;1754391;81;21589;-66
2021/01/12 07:16:14;;;;;;;1999.90;999.90;;;;;;;-1.24;90.06;101616.77;1704572;81;21370;-71
2021/01/12 07:18:59;;;;;;;1999.90;999.90;;;;;;;-1.23;89.97;101617.09;1756415;81;21048;-68
2021/01/12 07:21:30;;;;;;;1999.90;999.90;;;;;;;-1.20;89.97;101614.48;1755469;81;21617;-67
2021/01/12 07:24:01;;;;;;;1999.90;999.90;;;;;;;-1.18;89.89;101610.52;1752603;81;21143;-67
2021/01/12 07:26:33;;;;;;;1999.90;999.90;;;;;;;-1.15;89.61;101610.11;1748031;81;21547;-67
2021/01/12 07:29:05;;;;;;;1999.90;999.90;;;;;;;-1.11;89.52;101622.23;1756476;81;22648;-68
2021/01/12 07:31:33;;;;;;;1999.90;999.90;;;;;;;-1.07;89.22;101619.42;1751722;81;21641;-70
2021/01/12 07:34:01;;;;;;;1999.90;999.90;;;;;;;-1.02;89.12;101618.80;1752888;81;21122;-71
2021/01/12 07:36:34;;;;;;;1999.90;999.90;;;;;;;-0.98;88.85;101623.63;1753760;81;21099;-68
2021/01/12 07:39:02;;;;;;;1999.90;999.90;;;;;;;-0.95;88.65;101615.58;1752545;81;21014;-68
2021/01/12 07:41:30;;;;;;;1999.90;999.90;;;;;;;-0.94;88.50;101619.13;1753370;81;22276;-69
2021/01/12 07:43:58;;;;;;;1999.90;999.90;;;;;;;-0.94;88.15;101625.41;1722142;83;21141;-71
2021/01/12 07:46:26;;;;;;;1999.90;999.90;;;;;;;-0.97;87.43;101620.38;1724235;81;21027;-71
2021/01/12 07:48:54;;;;;;;1999.90;999.90;;;;;;;-1.00;86.98;101628.42;1741690;82;21840;-68
2021/01/12 07:51:27;;;;;;;1999.90;999.90;;;;;;;-1.05;86.62;101625.49;1761780;81;21555;-71
2021/01/12 07:53:55;;;;;;;1999.90;999.90;;;;;;;-1.07;86.72;101628.09;1747878;81;21388;-71
2021/01/12 07:56:23;;;;;;;1999.90;999.90;;;;;;;-1.11;86.73;101623.59;1751595;81;21454;-71
2021/01/12 07:58:50;;;;;;;1999.90;999.90;;;;;;;-1.11;86.82;101615.97;1750912;81;21527;-67
2021/01/12 08:01:26;;;;;;;1999.90;999.90;;;;;;;-1.10;86.96;101624.44;1743673;80;21089;-71
2021/01/12 08:03:54;;;;;;;1999.90;999.90;;;;;;;-1.09;86.82;101622.03;1746342;81;21104;-68
2021/01/12 08:06:22;;;;;;;1999.90;999.90;;;;;;;-1.06;86.63;101626.53;1747704;81;21488;-72
2021/01/12 08:08:56;;;;;;;1999.90;999.90;;;;;;;-1.03;86.41;101619.33;1749084;81;21018;-71
2021/01/12 08:11:24;;;;;;;1999.90;999.90;;;;;;;-1.00;86.12;101614.84;1744608;81;21029;-72
2021/01/12 08:14:08;;;;;;;1999.90;999.90;;;;;;;-0.99;86.28;101613.80;1719806;81;21574;-72
2021/01/12 08:16:36;;;;;;;1999.90;999.90;;;;;;;-0.98;86.54;101611.39;1748731;81;20954;-71
2021/01/12 08:19:04;;;;;;;1999.90;999.90;;;;;;;-0.94;86.89;101608.27;1747094;81;21414;-68
2021/01/12 08:21:41;;;;;;;1999.90;999.90;;;;;;;-0.91;86.90;101616.00;1744125;81;20990;-67
2021/01/12 08:24:10;;;;;;;1999.90;999.90;;;;;;;-0.91;86.80;101611.92;1745952;81;20961;-65
2021/01/12 08:26:45;;;;;;;1999.90;999.90;;;;;;;-0.91;86.46;101599.69;1760954;81;21080;-68
2021/01/12 08:29:13;;;;;;;;;;;;;;;-0.90;86.41;101595.94;1763377;81;21527;-68
2021/01/12 08:31:48;;;;;;;1999.90;999.90;;;;;;;-0.92;86.43;101600.22;1759171;81;21336;-68
2021/01/12 08:34:20;;;;;;;1999.90;999.90;;;;;;;-0.93;86.64;101603.14;1761046;81;20973;-67
2021/01/12 08:36:48;;;;;;;1999.90;999.90;;;;;;;-0.89;86.73;101603.88;1732858;81;20989;-67
2021/01/12 08:39:18;;;;;;;1999.90;999.90;;;;;;;-0.87;86.79;101603.67;1726702;81;21110;-71
2021/01/12 08:41:46;;;;;;;1999.90;999.90;;;;;;;-0.88;86.71;101602.00;1760230;80;21241;-68
2021/01/12 08:44:14;;;;;;;1999.90;999.90;;;;;;;-0.89;86.63;101603.04;1767434;79;21199;-68
2021/01/12 08:46:43;;;;;;;1999.90;999.90;;;;;;;-0.85;86.60;101600.22;1765397;81;20981;-69
2021/01/12 08:49:11;;;;;;;1999.90;999.90;;;;;;;-0.78;86.58;101599.70;1766888;81;20984;-71
2021/01/12 08:51:39;;;;;;;1999.90;999.90;;;;;;;-0.72;86.67;101586.11;1762100;81;21143;-67
2021/01/12 08:54:07;;;;;;;1999.90;999.90;;;;;;;-0.67;86.56;101584.96;1717152;81;21118;-71
2021/01/12 08:56:35;;;;;;;1999.90;999.90;;;;;;;-0.67;86.30;101582.77;1764548;81;21214;-68
2021/01/12 08:59:06;;;;;;;1999.90;999.90;;;;;;;-0.71;85.96;101572.84;1727339;81;21147;-67
2021/01/12 09:01:37;;;;;;;1999.90;999.90;;;;;;;-0.72;85.65;101561.65;1766033;81;21129;-68
2021/01/12 09:04:08;;;;;;;1999.90;999.90;;;;;;;-0.70;85.40;101550.56;1764568;81;21105;-71
2021/01/12 09:06:36;;;;;;;1999.90;999.90;;;;;;;-0.65;85.54;101550.77;1714595;82;21100;-68
2021/01/12 09:09:12;;;;;;;1999.90;999.90;;;;;;;-0.60;85.58;101544.70;1763458;81;21384;-72
2021/01/12 09:11:47;;;;;;;1999.90;999.90;;;;;;;-0.59;85.10;101558.08;1749288;81;21143;-70
2021/01/12 09:17:17;;;;;;;1999.90;999.90;;;;;;;-0.58;84.29;101535.80;1813064;76;22800;-68
2021/01/12 09:19:50;;;;;;;1999.90;999.90;;;;;;;-0.67;84.01;101521.59;1780025;79;20968;-67
2021/01/12 09:22:18;;;;;;;1999.90;999.90;;;;;;;-0.68;83.98;101514.48;1780514;80;21481;-68
2021/01/12 09:24:54;;;;;;;1999.90;999.90;;;;;;;-0.71;83.31;101542.09;1772274;80;21007;-68
2021/01/12 09:27:28;;;;;;;1999.90;999.90;;;;;;;-0.68;83.33;101534.36;1781722;80;20996;-71
2021/01/12 09:29:56;;;;;;;1999.90;999.90;;;;;;;-0.64;83.53;101523.89;1779618;79;21095;-71
2021/01/12 09:32:32;;;;;;;1999.90;999.90;;;;;;;-0.59;83.35;101529.53;1777100;80;20952;-71
2021/01/12 09:35:01;;;;;;;1999.90;999.90;;;;;;;-0.54;82.84;101522.94;1777087;80;22301;-70
2021/01/12 09:37:29;;;;;;;1999.90;999.90;;;;;;;-0.50;82.61;101499.70;1781298;80;21934;-71
2021/01/12 09:39:59;;;;;;;1999.90;999.90;;;;;;;-0.48;82.36;101506.30;1776664;80;21043;-71
2021/01/12 09:42:28;;;;;;;1999.90;999.90;;;;;;;-0.45;82.59;101497.71;1776204;79;20980;-68
2021/01/12 09:44:57;;;;;;;1999.90;999.90;;;;;;;-0.47;81.93;101487.05;1771713;80;21107;-68
2021/01/12 09:47:26;;;;;;;1999.90;999.90;;;;;;;-0.49;82.29;101501.37;1781426;80;21204;-71
2021/01/12 09:49:54;;;;;;;1999.90;999.90;;;;;;;-0.48;82.36;101503.58;1780122;79;21158;-71
2021/01/12 09:52:22;;;;;;;1999.90;999.90;;;;;;;-0.47;82.08;101482.13;1739905;81;21151;-66
2021/01/12 09:54:49;;;;;;;1999.90;999.90;;;;;;;-0.46;81.99;101490.60;1726467;82;21138;-65
2021/01/12 09:57:17;;;;;;;1999.90;999.90;;;;;;;-0.45;82.05;101489.55;1713462;82;21585;-68
2021/01/12 09:59:45;;;;;;;1999.90;999.90;;;;;;;-0.46;82.19;101481.08;1718153;82;21400;-70
2021/01/12 10:02:13;;;;;;;1999.90;999.90;;;;;;;-0.51;82.23;101479.00;1726687;82;21543;-66
2021/01/12 10:04:41;;;;;;;1999.90;999.90;;;;;;;-0.51;82.98;101493.95;1742878;81;21338;-69
2021/01/12 10:07:09;;;;;;;1999.90;999.90;;;;;;;-0.51;82.60;101481.72;1715387;83;21133;-66
2021/01/12 10:09:37;;;;;;;1999.90;999.90;;;;;;;-0.53;82.22;101459.34;1716215;83;21009;-69
2021/01/12 10:12:06;;;;;;;1999.90;999.90;;;;;;;-0.54;81.73;101438.64;1734890;81;21381;-66
2021/01/12 10:14:34;;;;;;;1999.90;999.90;;;;;;;-0.57;81.00;101451.83;1738996;81;21022;-70
2021/01/12 10:17:03;;;;;;;1999.90;999.90;;;;;;;-0.57;80.53;101449.11;1740544;81;21024;-69
2021/01/12 10:19:31;;;;;;;1999.90;999.90;;;;;;;-0.56;81.50;101443.46;1720245;83;21120;-67
2021/01/12 10:21:59;;;;;;;1999.90;999.90;;;;;;;-0.54;81.80;101440.00;1735310;81;21458;-69
2021/01/12 10:24:27;;;;;;;1999.90;999.90;;;;;;;-0.52;81.61;101440.63;1713948;83;21402;-67
2021/01/12 10:26:56;;;;;;;1999.90;999.90;;;;;;;-0.48;81.36;101445.95;1730987;81;21004;-70
2021/01/12 10:29:26;;;;;;;1999.90;999.90;;;;;;;-0.45;81.31;101444.68;1720560;82;21535;-67
2021/01/12 10:31:54;;;;;;;1999.90;999.90;;;;;;;-0.45;81.45;101450.13;1714042;82;21778;-69
2021/01/12 10:34:24;;;;;;;1999.90;999.90;;;;;;;-0.46;81.77;101453.89;1716310;82;21150;-67
2021/01/12 10:36:52;;;;;;;1999.90;999.90;;;;;;;-0.47;81.80;101457.66;1717584;82;21604;-67
2021/01/12 10:39:20;;;;;;;1999.90;999.90;;;;;;;-0.48;81.27;101459.55;1745885;81;21008;-67
2021/01/12 10:41:48;;;;;;;1999.90;999.90;;;;;;;-0.49;80.71;101466.03;1725378;82;21154;-67
2021/01/12 10:44:16;;;;;;;1999.90;999.90;;;;;;;-0.51;80.23;101468.13;1725725;82;21143;-67
2021/01/12 10:46:44;;;;;;;1999.90;999.90;;;;;;;-0.54;77.88;101483.51;1716636;82;21138;-67
2021/01/12 10:49:12;;;;;;;1999.90;999.90;;;;;;;-0.55;77.72;101506.31;1722151;82;21388;-67
2021/01/12 10:51:41;;;;;;;1999.90;999.90;;;;;;;-0.57;77.26;101482.58;1722147;82;21131;-69
2021/01/12 10:54:09;;;;;;;1999.90;999.90;;;;;;;-0.62;77.54;101478.30;1717895;82;21645;-70
2021/01/12 10:56:37;;;;;;;1999.90;999.90;;;;;;;-0.64;77.85;101466.80;1740442;81;21094;-67
2021/01/12 10:59:05;;;;;;;1999.90;999.90;;;;;;;-0.68;77.49;101476.43;1722489;82;21104;-69
2021/01/12 11:01:36;;;;;;;1999.90;999.90;;;;;;;-0.72;77.42;101468.39;1721859;82;21392;-69
2021/01/12 11:04:04;;;;;;;1999.90;999.90;;;;;;;-0.73;77.71;101453.95;1745839;81;21170;-67
2021/01/12 11:06:40;;;;;;;1999.90;999.90;;;;;;;-0.71;77.33;101447.78;1721115;82;21578;-70